createdAt,value
2023-05-14T00:00:04.546Z,11.00
2023-05-14T00:03:09.879Z,10.07
2023-05-14T00:06:13.221Z,10.33
2023-05-14T00:09:16.697Z,10.20
2023-05-14T00:12:20.022Z,11.13
2023-05-14T00:15:23.229Z,10.65
2023-05-14T00:18:26.716Z,9.35
2023-05-14T00:21:30.043Z,11.57
2023-05-14T00:24:33.233Z,10.43
2023-05-14T00:27:37.933Z,10.65
2023-05-14T00:30:41.299Z,9.55
2023-05-14T00:33:45.543Z,11.35
2023-05-14T00:36:48.847Z,12.87
2023-05-14T00:39:52.303Z,10.87
2023-05-14T00:42:56.415Z,10.15
2023-05-14T00:46:00.412Z,10.95
2023-05-14T00:49:03.792Z,10.35
2023-05-14T00:52:07.510Z,10.23
2023-05-14T00:55:16.357Z,13.32
2023-05-14T00:58:21.401Z,10.68
2023-05-14T01:01:24.807Z,10.70
2023-05-14T01:04:28.400Z,12.68
2023-05-14T01:07:53.450Z,13.03
2023-05-14T01:11:33.863Z,10.75
2023-05-14T01:15:06.697Z,12.25
2023-05-14T01:18:12.734Z,10.45
2023-05-14T01:21:35.359Z,13.00
2023-05-14T01:24:38.882Z,10.70
2023-05-14T01:27:46.061Z,14.07
2023-05-14T01:31:05.940Z,12.98
2023-05-14T01:34:11.757Z,12.38
2023-05-14T01:37:15.593Z,9.38
2023-05-14T01:40:19.303Z,11.73
2023-05-14T01:43:24.060Z,14.32
2023-05-14T01:46:31.024Z,10.10
2023-05-14T01:49:34.357Z,11.95
2023-05-14T01:52:38.296Z,9.93
2023-05-14T01:55:41.504Z,10.40
2023-05-14T01:58:44.833Z,11.30
2023-05-14T02:01:48.086Z,10.75
2023-05-14T02:04:51.780Z,9.65
2023-05-14T02:07:55.043Z,10.48
2023-05-14T02:10:58.511Z,12.40
2023-05-14T02:14:02.574Z,11.93
2023-05-14T02:17:06.000Z,11.07
2023-05-14T02:20:10.374Z,13.85
2023-05-14T02:23:13.697Z,9.20
2023-05-14T02:26:16.962Z,10.47
2023-05-14T02:29:20.501Z,9.52
2023-05-14T02:32:23.754Z,9.52
2023-05-14T02:35:27.091Z,15.10
2023-05-14T02:38:30.343Z,9.93
2023-05-14T02:41:33.657Z,11.10
2023-05-14T02:44:37.110Z,11.48
2023-05-14T02:47:40.716Z,10.10
2023-05-14T02:50:44.098Z,12.27
2023-05-14T02:53:47.448Z,10.43
2023-05-14T02:56:50.760Z,11.57
2023-05-14T02:59:54.029Z,9.47
2023-05-14T03:02:57.690Z,9.00
2023-05-14T03:06:01.223Z,12.52
2023-05-14T03:09:04.564Z,7.82
2023-05-14T03:12:08.839Z,8.60
2023-05-14T03:15:12.355Z,10.63
2023-05-14T03:18:15.769Z,10.50
2023-05-14T03:21:19.115Z,11.57
2023-05-14T03:24:22.271Z,9.82
2023-05-14T03:27:25.505Z,9.40
2023-05-14T03:30:28.926Z,8.80
2023-05-14T03:33:32.301Z,7.68
2023-05-14T03:36:36.496Z,7.65
2023-05-14T03:39:39.789Z,9.27
2023-05-14T03:42:42.994Z,8.33
2023-05-14T03:45:47.073Z,7.77
2023-05-14T03:48:53.029Z,6.75
2023-05-14T03:51:57.457Z,7.68
2023-05-14T03:55:00.746Z,8.82
2023-05-14T03:58:07.440Z,6.40
2023-05-14T04:01:10.905Z,9.48
2023-05-14T04:04:14.260Z,8.77
2023-05-14T04:07:17.455Z,8.60
2023-05-14T04:10:20.614Z,8.15
2023-05-14T04:13:23.842Z,6.83
2023-05-14T04:16:27.167Z,7.10
2023-05-14T04:19:30.451Z,10.00
2023-05-14T04:22:33.736Z,8.32
2023-05-14T04:25:36.896Z,7.35
2023-05-14T04:28:40.572Z,10.50
2023-05-14T04:31:44.258Z,6.30
2023-05-14T04:34:47.475Z,7.35
2023-05-14T04:37:50.645Z,12.00
2023-05-14T04:40:53.870Z,6.82
2023-05-14T04:43:59.095Z,7.80
2023-05-14T04:47:02.831Z,7.43
2023-05-14T04:50:06.648Z,8.00
2023-05-14T04:53:10.532Z,9.10
2023-05-14T04:56:13.950Z,7.53
2023-05-14T04:59:17.208Z,6.50
2023-05-14T05:02:20.476Z,8.40
2023-05-14T05:05:23.986Z,7.60
2023-05-14T05:08:31.736Z,6.90
2023-05-14T05:11:35.043Z,6.95
2023-05-14T05:14:38.267Z,8.37
2023-05-14T05:17:41.545Z,6.47
2023-05-14T05:20:44.856Z,6.82
2023-05-14T05:23:48.065Z,7.22
2023-05-14T05:26:51.963Z,7.00
2023-05-14T05:29:55.208Z,8.03
2023-05-14T05:32:58.534Z,9.67
2023-05-14T05:36:01.953Z,8.05
2023-05-14T05:39:05.205Z,10.50
2023-05-14T05:42:08.848Z,7.80
2023-05-14T05:45:12.154Z,11.07
2023-05-14T05:48:15.491Z,8.63
2023-05-14T05:51:18.696Z,8.68
2023-05-14T05:54:23.215Z,8.43
2023-05-14T05:57:27.319Z,8.50
2023-05-14T06:00:31.260Z,6.77
2023-05-14T06:03:34.511Z,8.23
2023-05-14T06:06:37.756Z,8.73
2023-05-14T06:09:41.029Z,11.30
2023-05-14T06:12:44.237Z,8.52
2023-05-14T06:15:47.477Z,9.70
2023-05-14T06:18:52.468Z,8.30
2023-05-14T06:21:56.028Z,8.85
2023-05-14T06:24:59.161Z,10.15
2023-05-14T06:28:02.402Z,8.77
2023-05-14T06:31:05.642Z,8.87
2023-05-14T06:34:09.300Z,9.93
2023-05-14T06:37:12.847Z,9.82
2023-05-14T06:40:16.376Z,9.35
2023-05-14T06:43:19.647Z,9.10
2023-05-14T06:46:22.914Z,10.43
2023-05-14T06:49:26.244Z,8.53
2023-05-14T06:52:29.401Z,7.90
2023-05-14T06:55:32.660Z,8.50
2023-05-14T06:58:35.870Z,10.25
2023-05-14T07:01:39.182Z,8.37
2023-05-14T07:04:42.422Z,9.25
2023-05-14T07:07:45.778Z,10.00
2023-05-14T07:10:49.151Z,8.65
2023-05-14T07:13:52.383Z,7.70
2023-05-14T07:16:55.574Z,8.80
2023-05-14T07:19:58.834Z,8.17
2023-05-14T07:23:02.140Z,7.45
2023-05-14T07:26:08.784Z,7.68
2023-05-14T07:29:11.977Z,8.52
2023-05-14T07:32:15.764Z,8.70
2023-05-14T07:35:19.145Z,7.22
2023-05-14T07:38:22.520Z,7.55
2023-05-14T07:41:25.650Z,6.97
2023-05-14T07:44:28.829Z,7.28
2023-05-14T07:47:32.260Z,7.47
2023-05-14T07:50:35.714Z,7.63
2023-05-14T07:53:38.935Z,6.68
2023-05-14T07:56:42.164Z,7.20
2023-05-14T07:59:45.404Z,9.68
2023-05-14T08:02:49.408Z,10.83
2023-05-14T08:05:52.899Z,8.83
2023-05-14T08:08:56.136Z,9.98
2023-05-14T08:11:59.329Z,9.80
2023-05-14T08:15:03.257Z,9.13
2023-05-14T08:18:06.563Z,9.00
2023-05-14T08:21:09.762Z,8.52
2023-05-14T08:24:13.029Z,11.75
2023-05-14T08:27:16.739Z,11.45
2023-05-14T08:30:20.266Z,8.55
2023-05-14T08:33:23.494Z,12.63
2023-05-14T08:36:26.926Z,11.10
2023-05-14T08:39:30.354Z,9.13
2023-05-14T08:42:34.413Z,9.77
2023-05-14T08:45:39.637Z,9.82
2023-05-14T08:48:46.299Z,11.10
2023-05-14T08:51:49.702Z,10.35
2023-05-14T08:54:54.119Z,10.15
2023-05-14T08:57:57.403Z,9.57
2023-05-14T09:01:00.696Z,10.13
2023-05-14T09:04:08.515Z,8.40
2023-05-14T09:07:12.020Z,8.68
2023-05-14T09:10:17.260Z,11.63
2023-05-14T09:13:20.429Z,10.40
2023-05-14T09:16:26.092Z,9.07
2023-05-14T09:19:29.561Z,8.53
2023-05-14T09:22:33.006Z,9.77
2023-05-14T09:25:36.368Z,12.30
2023-05-14T09:28:43.560Z,8.48
2023-05-14T09:31:49.891Z,11.68
2023-05-14T09:34:53.263Z,10.80
2023-05-14T09:37:56.615Z,11.35
2023-05-14T09:41:02.789Z,14.43
2023-05-14T09:44:06.739Z,12.13
2023-05-14T09:47:10.160Z,12.45
2023-05-14T09:50:13.543Z,13.90
2023-05-14T09:53:17.917Z,14.93
2023-05-14T09:56:21.741Z,20.13
2023-05-14T09:59:24.927Z,14.07
2023-05-14T10:02:37.560Z,15.48
2023-05-14T10:05:42.457Z,15.30
2023-05-14T10:08:51.028Z,15.00
2023-05-14T10:11:56.344Z,14.15
2023-05-14T10:15:06.930Z,18.23
2023-05-14T10:18:16.827Z,18.15
2023-05-14T10:21:22.423Z,20.00
2023-05-14T10:24:26.007Z,17.17
2023-05-14T10:27:29.428Z,13.77
2023-05-14T10:30:33.207Z,16.13
2023-05-14T10:33:58.559Z,15.27
2023-05-14T10:37:07.888Z,16.07
2023-05-14T10:40:12.207Z,17.17
2023-05-14T10:43:17.647Z,15.60
2023-05-14T10:46:21.094Z,14.05
2023-05-14T10:49:39.875Z,11.82
2023-05-14T10:52:46.729Z,15.67
2023-05-14T10:55:54.624Z,13.10
2023-05-14T10:58:59.954Z,17.45
2023-05-14T11:02:06.366Z,12.77
2023-05-14T11:05:16.055Z,13.57
2023-05-14T11:08:20.113Z,11.70
2023-05-14T11:11:26.150Z,10.10
2023-05-14T11:14:29.357Z,10.30
2023-05-14T11:17:33.157Z,12.38
2023-05-14T11:20:37.618Z,9.30
2023-05-14T11:23:40.768Z,9.93
2023-05-14T11:26:44.000Z,8.80
2023-05-14T11:29:48.122Z,9.18
2023-05-14T11:32:51.649Z,10.77
2023-05-14T11:35:55.181Z,10.20
2023-05-14T11:38:58.413Z,8.83
2023-05-14T11:42:04.694Z,7.60
2023-05-14T11:45:11.953Z,8.98
2023-05-14T11:48:15.233Z,7.75
2023-05-14T11:51:18.568Z,7.65
2023-05-14T11:54:21.775Z,9.13
2023-05-14T11:57:25.199Z,7.30
2023-05-14T12:00:28.555Z,6.97
2023-05-14T12:03:32.177Z,10.02
2023-05-14T12:06:35.391Z,7.32
2023-05-14T12:09:49.063Z,7.03
2023-05-14T12:12:52.247Z,8.87
2023-05-14T12:15:58.267Z,8.93
2023-05-14T12:19:01.919Z,8.93
2023-05-14T12:22:05.293Z,9.50
2023-05-14T12:25:15.694Z,10.43
2023-05-14T12:28:19.834Z,7.30
2023-05-14T12:31:29.831Z,7.47
2023-05-14T12:34:33.921Z,8.15
2023-05-14T12:37:40.072Z,7.22
2023-05-14T12:40:43.337Z,8.87
2023-05-14T12:43:49.674Z,6.53
2023-05-14T12:46:53.339Z,6.47
2023-05-14T12:49:56.593Z,6.70
2023-05-14T12:52:59.804Z,7.50
2023-05-14T12:56:03.078Z,7.67
2023-05-14T12:59:06.426Z,7.17
2023-05-14T13:02:09.741Z,7.28
2023-05-14T13:05:13.281Z,7.45
2023-05-14T13:08:17.940Z,7.88
2023-05-14T13:11:21.790Z,9.20
2023-05-14T13:14:25.047Z,6.67
2023-05-14T13:17:28.288Z,7.65
2023-05-14T13:20:31.660Z,6.70
2023-05-14T13:23:34.908Z,7.07
2023-05-14T13:26:38.494Z,8.07
2023-05-14T13:29:41.666Z,7.10
2023-05-14T13:32:45.416Z,7.28
2023-05-14T13:35:48.714Z,7.38
2023-05-14T13:38:51.912Z,9.02
2023-05-14T13:41:56.942Z,8.43
2023-05-14T13:45:00.689Z,6.37
2023-05-14T13:48:04.062Z,6.15
2023-05-14T13:51:07.415Z,6.50
2023-05-14T13:54:10.885Z,7.07
2023-05-14T13:57:14.570Z,8.40
2023-05-14T14:00:18.191Z,6.43
2023-05-14T14:03:21.533Z,6.90
2023-05-14T14:06:27.556Z,7.45
2023-05-14T14:09:35.094Z,6.65
2023-05-14T14:12:38.384Z,7.23
2023-05-14T14:15:41.709Z,6.30
2023-05-14T14:18:45.482Z,7.03
2023-05-14T14:24:56.999Z,7.68
2023-05-14T14:28:01.100Z,7.43
2023-05-14T14:31:04.691Z,6.57
2023-05-14T14:34:08.005Z,8.13
2023-05-14T14:37:11.179Z,6.65
2023-05-14T14:40:14.820Z,7.05
2023-05-14T14:43:18.005Z,8.47
2023-05-14T14:46:21.334Z,5.70
2023-05-14T14:49:26.312Z,6.55
2023-05-14T14:52:29.724Z,7.40
2023-05-14T14:55:35.934Z,9.25
2023-05-14T14:58:39.187Z,7.20
2023-05-14T15:01:42.472Z,9.27
2023-05-14T15:04:45.708Z,7.95
2023-05-14T15:07:49.042Z,7.40
2023-05-14T15:10:52.356Z,8.25
2023-05-14T15:13:55.764Z,7.47
2023-05-14T15:16:59.007Z,6.47
2023-05-14T15:20:02.345Z,5.43
2023-05-14T15:23:06.170Z,6.63
2023-05-14T15:26:09.324Z,7.50
2023-05-14T15:29:12.592Z,7.07
2023-05-14T15:32:16.661Z,8.50
2023-05-14T15:35:20.010Z,7.50
2023-05-14T15:38:23.295Z,6.07
2023-05-14T15:41:28.732Z,6.95
2023-05-14T15:44:32.139Z,8.40
2023-05-14T15:47:36.176Z,7.17
2023-05-14T15:50:39.424Z,5.85
2023-05-14T15:53:42.601Z,6.00
2023-05-14T15:56:46.619Z,6.20
2023-05-14T15:59:49.904Z,7.13
2023-05-14T16:02:53.264Z,11.77
2023-05-14T16:05:56.843Z,11.02
2023-05-14T16:09:01.477Z,7.78
2023-05-14T16:12:05.967Z,7.70
2023-05-14T16:15:09.606Z,8.80
2023-05-14T16:18:12.833Z,8.53
2023-05-14T16:21:16.158Z,6.85
2023-05-14T16:24:19.696Z,6.18
2023-05-14T16:27:22.979Z,8.15
2023-05-14T16:30:26.265Z,7.00
2023-05-14T16:33:29.809Z,9.57
2023-05-14T16:36:33.552Z,6.18
2023-05-14T16:39:36.735Z,11.73
2023-05-14T16:42:41.595Z,7.47
2023-05-14T16:45:44.994Z,15.00
2023-05-14T16:48:50.582Z,9.37
2023-05-14T16:51:53.845Z,9.30
2023-05-14T16:54:57.125Z,9.20
2023-05-14T16:58:00.364Z,7.00
2023-05-14T17:01:03.636Z,17.90
2023-05-14T17:04:07.013Z,7.73
2023-05-14T17:07:10.690Z,8.07
2023-05-14T17:10:13.866Z,7.45
2023-05-14T17:13:17.200Z,8.88
2023-05-14T17:16:22.165Z,7.97
2023-05-14T17:19:25.541Z,10.10
2023-05-14T17:22:28.725Z,7.90
2023-05-14T17:25:33.569Z,7.88
2023-05-14T17:28:36.769Z,23.25
2023-05-14T17:31:40.119Z,7.27
2023-05-14T17:34:43.515Z,8.87
2023-05-14T17:37:46.922Z,7.55
2023-05-14T17:40:50.176Z,11.00
2023-05-14T17:43:53.524Z,8.85
2023-05-14T17:46:56.986Z,7.83
2023-05-14T17:50:00.097Z,10.40
2023-05-14T17:53:03.578Z,10.75
2023-05-14T17:56:06.871Z,8.93
2023-05-14T17:59:10.290Z,9.63
2023-05-14T18:02:13.449Z,8.23
2023-05-14T18:05:18.640Z,8.97
2023-05-14T18:08:23.892Z,9.52
2023-05-14T18:11:32.799Z,10.10
2023-05-14T18:14:36.411Z,11.25
2023-05-14T18:17:39.700Z,10.73
2023-05-14T18:20:42.912Z,11.87
2023-05-14T18:23:46.151Z,8.07
2023-05-14T18:26:49.814Z,10.05
2023-05-14T18:29:53.380Z,10.30
2023-05-14T18:32:57.112Z,8.73
2023-05-14T18:36:00.607Z,6.87
2023-05-14T18:39:03.891Z,7.75
2023-05-14T18:42:07.618Z,9.82
2023-05-14T18:45:11.486Z,9.13
2023-05-14T18:48:15.434Z,10.40
2023-05-14T18:51:18.620Z,7.33
2023-05-14T18:54:22.066Z,8.55
2023-05-14T18:57:32.825Z,7.88
2023-05-14T19:00:36.050Z,6.78
2023-05-14T19:03:41.676Z,7.57
2023-05-14T19:06:44.997Z,9.17
2023-05-14T19:09:48.379Z,7.95
2023-05-14T19:12:51.851Z,9.20
2023-05-14T19:15:55.286Z,7.82
2023-05-14T19:18:58.667Z,9.00
2023-05-14T19:22:01.891Z,9.70
2023-05-14T19:25:06.902Z,7.97
2023-05-14T19:28:11.368Z,7.95
2023-05-14T19:31:15.762Z,7.68
2023-05-14T19:34:18.995Z,9.90
2023-05-14T19:37:22.518Z,8.33
2023-05-14T19:40:25.907Z,8.27
2023-05-14T19:43:29.396Z,8.65
2023-05-14T19:46:32.875Z,7.97
2023-05-14T19:49:36.074Z,7.53
2023-05-14T19:52:39.307Z,6.60
2023-05-14T19:55:42.869Z,7.82
2023-05-14T19:58:46.221Z,7.93
2023-05-14T20:01:49.657Z,9.07
2023-05-14T20:04:55.448Z,8.80
2023-05-14T20:07:58.794Z,6.27
2023-05-14T20:11:02.160Z,10.25
2023-05-14T20:14:07.888Z,7.88
2023-05-14T20:17:11.140Z,8.43
2023-05-14T20:20:14.454Z,6.97
2023-05-14T20:23:17.783Z,9.00
2023-05-14T20:26:21.421Z,8.57
2023-05-14T20:29:24.685Z,8.13
2023-05-14T20:32:28.021Z,8.00
2023-05-14T20:35:31.595Z,9.33
2023-05-14T20:38:35.127Z,9.37
2023-05-14T20:41:38.823Z,8.10
2023-05-14T20:44:42.068Z,7.47
2023-05-14T20:47:45.442Z,7.30
2023-05-14T20:50:51.197Z,8.57
2023-05-14T20:53:54.337Z,8.77
2023-05-14T20:57:00.277Z,11.00
2023-05-14T21:00:08.120Z,11.82
2023-05-14T21:03:11.644Z,8.02
2023-05-14T21:06:15.155Z,7.23
2023-05-14T21:09:18.387Z,7.03
2023-05-14T21:12:21.596Z,6.97
2023-05-14T21:15:25.244Z,5.63
2023-05-14T21:18:30.844Z,7.78
2023-05-14T21:21:34.189Z,7.33
2023-05-14T21:24:37.370Z,7.20
2023-05-14T21:27:40.600Z,6.57
2023-05-14T21:30:43.754Z,8.52
2023-05-14T21:33:47.056Z,4.85
2023-05-14T21:36:50.287Z,6.37
2023-05-14T21:39:53.450Z,7.33
2023-05-14T21:42:56.603Z,6.72
2023-05-14T21:45:59.756Z,5.55
2023-05-14T21:49:03.221Z,5.20
2023-05-14T21:52:06.772Z,7.27
2023-05-14T21:55:10.313Z,7.77
2023-05-14T21:58:13.646Z,8.15
2023-05-14T22:01:16.964Z,4.85
2023-05-14T22:04:20.322Z,6.20
2023-05-14T22:07:23.579Z,7.07
2023-05-14T22:10:26.862Z,10.37
2023-05-14T22:13:30.059Z,6.85
2023-05-14T22:16:33.798Z,9.00
2023-05-14T22:19:36.975Z,5.88
2023-05-14T22:22:40.172Z,4.77
2023-05-14T22:25:43.834Z,5.20
2023-05-14T22:28:48.707Z,6.13
2023-05-14T22:31:52.003Z,5.65
2023-05-14T22:34:55.808Z,6.40
2023-05-14T22:37:59.104Z,5.83
2023-05-14T22:41:02.498Z,7.20
2023-05-14T22:44:05.735Z,7.00
2023-05-14T22:47:09.032Z,6.38
2023-05-14T22:50:12.273Z,5.97
2023-05-14T22:53:15.487Z,7.07
2023-05-14T22:56:20.403Z,4.70
2023-05-14T22:59:24.012Z,6.82
2023-05-14T23:02:27.411Z,5.38
2023-05-14T23:05:30.790Z,5.25
2023-05-14T23:08:34.033Z,7.03
2023-05-14T23:11:37.226Z,14.63
2023-05-14T23:14:40.454Z,4.68
2023-05-14T23:17:43.878Z,7.03
2023-05-14T23:20:47.249Z,6.47
2023-05-14T23:23:50.514Z,7.97
2023-05-14T23:26:53.724Z,6.37
2023-05-14T23:29:56.924Z,4.70
2023-05-14T23:33:00.218Z,6.70
2023-05-14T23:36:04.390Z,6.78
2023-05-14T23:39:07.775Z,9.13
2023-05-14T23:42:11.007Z,6.87
2023-05-14T23:45:14.322Z,5.78
2023-05-14T23:48:18.127Z,7.20
2023-05-14T23:51:21.295Z,8.52
2023-05-14T23:54:24.385Z,6.43
2023-05-14T23:57:27.493Z,6.50
